sensor_id;sensor_type;location;lat;lon;timestamp;P1;durP1;ratioP1;P2;durP2;ratioP2
5491;SDS011;2768;53.540;10.224;2022-09-09T00:04:33;105.20;;;20.13;;
5491;SDS011;2768;53.540;10.224;2022-09-09T00:10:28;98.40;;;20.63;;
5491;SDS011;2768;53.540;10.224;2022-09-09T00:16:25;67.90;;;21.77;;
5491;SDS011;2768;53.540;10.224;2022-09-09T00:22:27;91.70;;;20.70;;
5491;SDS011;2768;53.540;10.224;2022-09-09T00:28:23;87.87;;;19.17;;
5491;SDS011;2768;53.540;10.224;2022-09-09T00:34:19;25.57;;;19.10;;
5491;SDS011;2768;53.540;10.224;2022-09-09T00:40:24;63.23;;;21.07;;
5491;SDS011;2768;53.540;10.224;2022-09-09T00:46:33;71.73;;;18.70;;
5491;SDS011;2768;53.540;10.224;2022-09-09T00:52:44;32.80;;;18.67;;
5491;SDS011;2768;53.540;10.224;2022-09-09T00:58:47;28.17;;;20.13;;
5491;SDS011;2768;53.540;10.224;2022-09-09T01:04:48;22.60;;;19.83;;
5491;SDS011;2768;53.540;10.224;2022-09-09T01:10:43;23.73;;;18.57;;
5491;SDS011;2768;53.540;10.224;2022-09-09T01:16:44;25.53;;;18.70;;
5491;SDS011;2768;53.540;10.224;2022-09-09T01:22:41;25.33;;;19.80;;
5491;SDS011;2768;53.540;10.224;2022-09-09T01:28:44;23.70;;;19.43;;
5491;SDS011;2768;53.540;10.224;2022-09-09T01:34:41;22.67;;;18.30;;
5491;SDS011;2768;53.540;10.224;2022-09-09T01:40:35;21.87;;;18.80;;
5491;SDS011;2768;53.540;10.224;2022-09-09T01:46:30;24.13;;;18.70;;
5491;SDS011;2768;53.540;10.224;2022-09-09T01:52:25;22.60;;;19.30;;
5491;SDS011;2768;53.540;10.224;2022-09-09T01:58:22;24.57;;;19.53;;
5491;SDS011;2768;53.540;10.224;2022-09-09T02:04:31;25.77;;;20.00;;
5491;SDS011;2768;53.540;10.224;2022-09-09T02:10:36;28.67;;;22.03;;
5491;SDS011;2768;53.540;10.224;2022-09-09T02:16:42;23.33;;;19.00;;
5491;SDS011;2768;53.540;10.224;2022-09-09T02:22:42;44.70;;;21.00;;
5491;SDS011;2768;53.540;10.224;2022-09-09T02:28:40;91.90;;;19.53;;
5491;SDS011;2768;53.540;10.224;2022-09-09T02:34:34;34.57;;;19.30;;
5491;SDS011;2768;53.540;10.224;2022-09-09T02:40:32;32.03;;;19.93;;
5491;SDS011;2768;53.540;10.224;2022-09-09T02:46:36;26.47;;;18.00;;
5491;SDS011;2768;53.540;10.224;2022-09-09T02:52:54;25.47;;;19.13;;
5491;SDS011;2768;53.540;10.224;2022-09-09T02:58:56;29.40;;;18.57;;
5491;SDS011;2768;53.540;10.224;2022-09-09T03:04:50;24.03;;;17.63;;
5491;SDS011;2768;53.540;10.224;2022-09-09T03:10:44;23.77;;;18.13;;
5491;SDS011;2768;53.540;10.224;2022-09-09T03:16:40;21.90;;;19.47;;
5491;SDS011;2768;53.540;10.224;2022-09-09T03:22:35;37.00;;;17.97;;
5491;SDS011;2768;53.540;10.224;2022-09-09T03:28:28;19.63;;;17.53;;
5491;SDS011;2768;53.540;10.224;2022-09-09T03:34:26;19.97;;;17.77;;
5491;SDS011;2768;53.540;10.224;2022-09-09T03:40:22;23.87;;;18.90;;
5491;SDS011;2768;53.540;10.224;2022-09-09T03:46:15;19.90;;;17.80;;
5491;SDS011;2768;53.540;10.224;2022-09-09T03:52:10;23.70;;;19.97;;
5491;SDS011;2768;53.540;10.224;2022-09-09T03:58:04;23.13;;;18.40;;
5491;SDS011;2768;53.540;10.224;2022-09-09T04:03:57;23.30;;;18.43;;
5491;SDS011;2768;53.540;10.224;2022-09-09T04:09:52;20.60;;;17.63;;
5491;SDS011;2768;53.540;10.224;2022-09-09T04:15:50;16.87;;;15.07;;
5491;SDS011;2768;53.540;10.224;2022-09-09T04:21:44;23.57;;;17.67;;
5491;SDS011;2768;53.540;10.224;2022-09-09T04:27:39;18.10;;;16.20;;
5491;SDS011;2768;53.540;10.224;2022-09-09T04:33:32;17.13;;;15.43;;
5491;SDS011;2768;53.540;10.224;2022-09-09T04:39:30;16.87;;;15.13;;
5491;SDS011;2768;53.540;10.224;2022-09-09T04:45:26;16.20;;;14.60;;
5491;SDS011;2768;53.540;10.224;2022-09-09T04:51:20;14.90;;;13.40;;
5491;SDS011;2768;53.540;10.224;2022-09-09T04:57:15;14.67;;;13.17;;
5491;SDS011;2768;53.540;10.224;2022-09-09T05:03:12;13.10;;;11.80;;
5491;SDS011;2768;53.540;10.224;2022-09-09T05:09:06;13.57;;;12.23;;
5491;SDS011;2768;53.540;10.224;2022-09-09T05:14:59;13.90;;;12.60;;
5491;SDS011;2768;53.540;10.224;2022-09-09T05:20:59;12.27;;;11.07;;
5491;SDS011;2768;53.540;10.224;2022-09-09T05:26:53;13.30;;;10.73;;
5491;SDS011;2768;53.540;10.224;2022-09-09T05:32:49;12.47;;;10.87;;
5491;SDS011;2768;53.540;10.224;2022-09-09T05:38:44;13.67;;;10.00;;
5491;SDS011;2768;53.540;10.224;2022-09-09T05:44:38;12.03;;;9.47;;
5491;SDS011;2768;53.540;10.224;2022-09-09T05:50:34;10.93;;;9.83;;
5491;SDS011;2768;53.540;10.224;2022-09-09T05:56:28;11.00;;;8.70;;
5491;SDS011;2768;53.540;10.224;2022-09-09T06:02:24;11.13;;;7.63;;
5491;SDS011;2768;53.540;10.224;2022-09-09T06:08:18;8.90;;;8.00;;
5491;SDS011;2768;53.540;10.224;2022-09-09T06:14:13;8.57;;;7.60;;
5491;SDS011;2768;53.540;10.224;2022-09-09T06:20:10;9.77;;;7.03;;
5491;SDS011;2768;53.540;10.224;2022-09-09T06:26:04;8.27;;;7.37;;
5491;SDS011;2768;53.540;10.224;2022-09-09T06:32:00;7.53;;;6.77;;
5491;SDS011;2768;53.540;10.224;2022-09-09T06:37:54;7.50;;;6.80;;
5491;SDS011;2768;53.540;10.224;2022-09-09T06:43:50;8.90;;;6.60;;
5491;SDS011;2768;53.540;10.224;2022-09-09T06:49:49;7.47;;;6.60;;
5491;SDS011;2768;53.540;10.224;2022-09-09T06:55:42;7.90;;;6.40;;
5491;SDS011;2768;53.540;10.224;2022-09-09T07:01:37;6.80;;;6.20;;
5491;SDS011;2768;53.540;10.224;2022-09-09T07:07:36;9.30;;;5.93;;
5491;SDS011;2768;53.540;10.224;2022-09-09T07:13:31;6.43;;;5.00;;
5491;SDS011;2768;53.540;10.224;2022-09-09T07:19:25;7.03;;;5.50;;
5491;SDS011;2768;53.540;10.224;2022-09-09T07:25:21;10.33;;;5.73;;
5491;SDS011;2768;53.540;10.224;2022-09-09T07:31:15;10.77;;;5.13;;
5491;SDS011;2768;53.540;10.224;2022-09-09T07:37:09;5.13;;;4.63;;
5491;SDS011;2768;53.540;10.224;2022-09-09T07:43:09;6.70;;;4.60;;
5491;SDS011;2768;53.540;10.224;2022-09-09T07:49:08;4.77;;;4.03;;
5491;SDS011;2768;53.540;10.224;2022-09-09T07:55:02;6.37;;;4.27;;
5491;SDS011;2768;53.540;10.224;2022-09-09T08:00:59;4.50;;;4.10;;
5491;SDS011;2768;53.540;10.224;2022-09-09T08:06:53;4.43;;;4.03;;
5491;SDS011;2768;53.540;10.224;2022-09-09T08:12:49;6.83;;;3.27;;
5491;SDS011;2768;53.540;10.224;2022-09-09T08:19:05;4.53;;;4.03;;
5491;SDS011;2768;53.540;10.224;2022-09-09T08:24:59;4.60;;;3.20;;
5491;SDS011;2768;53.540;10.224;2022-09-09T08:30:55;5.57;;;3.60;;
5491;SDS011;2768;53.540;10.224;2022-09-09T08:36:58;4.93;;;4.00;;
5491;SDS011;2768;53.540;10.224;2022-09-09T08:42:58;4.20;;;3.80;;
5491;SDS011;2768;53.540;10.224;2022-09-09T08:48:56;4.73;;;3.70;;
5491;SDS011;2768;53.540;10.224;2022-09-09T08:54:54;5.80;;;3.60;;
5491;SDS011;2768;53.540;10.224;2022-09-09T09:00:57;5.07;;;3.40;;
5491;SDS011;2768;53.540;10.224;2022-09-09T09:07:12;3.63;;;3.30;;
5491;SDS011;2768;53.540;10.224;2022-09-09T09:13:17;3.03;;;2.70;;
5491;SDS011;2768;53.540;10.224;2022-09-09T09:19:15;2.77;;;2.50;;
5491;SDS011;2768;53.540;10.224;2022-09-09T09:25:12;2.90;;;2.60;;
5491;SDS011;2768;53.540;10.224;2022-09-09T09:31:13;4.90;;;2.27;;
5491;SDS011;2768;53.540;10.224;2022-09-09T09:37:12;3.60;;;2.03;;
5491;SDS011;2768;53.540;10.224;2022-09-09T09:43:16;2.83;;;2.60;;
5491;SDS011;2768;53.540;10.224;2022-09-09T09:49:14;3.23;;;1.87;;
5491;SDS011;2768;53.540;10.224;2022-09-09T09:55:11;2.10;;;1.90;;
5491;SDS011;2768;53.540;10.224;2022-09-09T10:01:18;2.93;;;1.83;;
5491;SDS011;2768;53.540;10.224;2022-09-09T10:07:18;2.50;;;1.80;;
5491;SDS011;2768;53.540;10.224;2022-09-09T10:13:15;2.50;;;1.83;;
5491;SDS011;2768;53.540;10.224;2022-09-09T10:19:13;4.03;;;1.50;;
5491;SDS011;2768;53.540;10.224;2022-09-09T10:25:16;3.33;;;1.93;;
5491;SDS011;2768;53.540;10.224;2022-09-09T10:31:22;3.17;;;1.83;;
5491;SDS011;2768;53.540;10.224;2022-09-09T10:37:25;1.73;;;1.63;;
5491;SDS011;2768;53.540;10.224;2022-09-09T10:43:49;3.03;;;2.10;;
5491;SDS011;2768;53.540;10.224;2022-09-09T10:50:02;2.03;;;1.40;;
5491;SDS011;2768;53.540;10.224;2022-09-09T10:56:21;3.13;;;1.73;;
5491;SDS011;2768;53.540;10.224;2022-09-09T11:02:19;2.63;;;1.27;;
5491;SDS011;2768;53.540;10.224;2022-09-09T11:08:19;3.03;;;1.60;;
5491;SDS011;2768;53.540;10.224;2022-09-09T11:14:15;2.83;;;1.50;;
5491;SDS011;2768;53.540;10.224;2022-09-09T11:20:15;3.70;;;1.80;;
5491;SDS011;2768;53.540;10.224;2022-09-09T11:26:10;2.87;;;1.80;;
5491;SDS011;2768;53.540;10.224;2022-09-09T11:32:13;2.40;;;1.30;;
5491;SDS011;2768;53.540;10.224;2022-09-09T11:38:23;2.37;;;1.80;;
5491;SDS011;2768;53.540;10.224;2022-09-09T11:44:23;2.10;;;1.23;;
5491;SDS011;2768;53.540;10.224;2022-09-09T11:50:27;1.53;;;1.17;;
5491;SDS011;2768;53.540;10.224;2022-09-09T11:56:25;2.87;;;1.60;;
5491;SDS011;2768;53.540;10.224;2022-09-09T12:02:22;2.00;;;1.30;;
5491;SDS011;2768;53.540;10.224;2022-09-09T12:08:19;5.07;;;2.20;;
5491;SDS011;2768;53.540;10.224;2022-09-09T12:14:21;3.90;;;1.90;;
5491;SDS011;2768;53.540;10.224;2022-09-09T12:20:17;4.80;;;2.03;;
5491;SDS011;2768;53.540;10.224;2022-09-09T12:26:25;4.70;;;2.30;;
5491;SDS011;2768;53.540;10.224;2022-09-09T12:32:25;6.03;;;2.50;;
5491;SDS011;2768;53.540;10.224;2022-09-09T12:38:22;3.87;;;2.33;;
5491;SDS011;2768;53.540;10.224;2022-09-09T12:44:20;6.40;;;2.40;;
5491;SDS011;2768;53.540;10.224;2022-09-09T12:50:19;3.63;;;2.53;;
5491;SDS011;2768;53.540;10.224;2022-09-09T12:56:18;3.00;;;2.37;;
5491;SDS011;2768;53.540;10.224;2022-09-09T13:02:18;3.43;;;2.80;;
5491;SDS011;2768;53.540;10.224;2022-09-09T13:08:15;2.50;;;2.00;;
5491;SDS011;2768;53.540;10.224;2022-09-09T13:14:12;2.63;;;2.03;;
5491;SDS011;2768;53.540;10.224;2022-09-09T13:20:15;4.20;;;2.50;;
5491;SDS011;2768;53.540;10.224;2022-09-09T13:26:21;1.50;;;1.40;;
5491;SDS011;2768;53.540;10.224;2022-09-09T13:32:16;2.60;;;1.67;;
5491;SDS011;2768;53.540;10.224;2022-09-09T13:38:12;2.37;;;1.80;;
5491;SDS011;2768;53.540;10.224;2022-09-09T13:44:17;5.23;;;2.37;;
5491;SDS011;2768;53.540;10.224;2022-09-09T13:50:18;3.97;;;2.03;;
5491;SDS011;2768;53.540;10.224;2022-09-09T13:56:13;3.40;;;2.70;;
5491;SDS011;2768;53.540;10.224;2022-09-09T14:02:09;3.53;;;2.13;;
5491;SDS011;2768;53.540;10.224;2022-09-09T14:08:03;4.73;;;2.50;;
5491;SDS011;2768;53.540;10.224;2022-09-09T14:13:57;3.17;;;2.70;;
5491;SDS011;2768;53.540;10.224;2022-09-09T14:19:55;3.47;;;2.30;;
5491;SDS011;2768;53.540;10.224;2022-09-09T14:25:48;3.40;;;2.33;;
5491;SDS011;2768;53.540;10.224;2022-09-09T14:31:42;3.70;;;2.43;;
5491;SDS011;2768;53.540;10.224;2022-09-09T14:37:36;3.27;;;2.97;;
5491;SDS011;2768;53.540;10.224;2022-09-09T14:43:30;5.73;;;3.03;;
5491;SDS011;2768;53.540;10.224;2022-09-09T14:49:24;5.90;;;2.53;;
5491;SDS011;2768;53.540;10.224;2022-09-09T14:55:18;3.40;;;2.40;;
5491;SDS011;2768;53.540;10.224;2022-09-09T15:01:13;4.80;;;3.30;;
5491;SDS011;2768;53.540;10.224;2022-09-09T15:07:08;3.67;;;2.20;;
5491;SDS011;2768;53.540;10.224;2022-09-09T15:13:03;3.43;;;2.00;;
5491;SDS011;2768;53.540;10.224;2022-09-09T15:18:57;4.47;;;2.40;;
5491;SDS011;2768;53.540;10.224;2022-09-09T15:24:52;4.97;;;2.60;;
5491;SDS011;2768;53.540;10.224;2022-09-09T15:30:48;3.17;;;2.10;;
5491;SDS011;2768;53.540;10.224;2022-09-09T15:36:43;3.37;;;2.47;;
5491;SDS011;2768;53.540;10.224;2022-09-09T15:42:38;4.37;;;3.30;;
5491;SDS011;2768;53.540;10.224;2022-09-09T15:48:32;4.60;;;3.00;;
5491;SDS011;2768;53.540;10.224;2022-09-09T15:54:26;4.10;;;2.97;;
5491;SDS011;2768;53.540;10.224;2022-09-09T16:00:19;3.87;;;2.80;;
5491;SDS011;2768;53.540;10.224;2022-09-09T16:06:14;2.87;;;2.50;;
5491;SDS011;2768;53.540;10.224;2022-09-09T16:12:08;2.93;;;2.60;;
5491;SDS011;2768;53.540;10.224;2022-09-09T16:18:03;4.03;;;1.90;;
5491;SDS011;2768;53.540;10.224;2022-09-09T16:23:59;4.40;;;2.07;;
5491;SDS011;2768;53.540;10.224;2022-09-09T16:29:53;4.63;;;1.83;;
5491;SDS011;2768;53.540;10.224;2022-09-09T16:35:47;4.67;;;1.83;;
5491;SDS011;2768;53.540;10.224;2022-09-09T16:41:43;3.30;;;2.07;;
5491;SDS011;2768;53.540;10.224;2022-09-09T16:47:37;2.97;;;1.60;;
5491;SDS011;2768;53.540;10.224;2022-09-09T16:53:31;2.07;;;1.20;;
5491;SDS011;2768;53.540;10.224;2022-09-09T16:59:27;2.67;;;1.60;;
5491;SDS011;2768;53.540;10.224;2022-09-09T17:05:20;3.00;;;1.83;;
5491;SDS011;2768;53.540;10.224;2022-09-09T17:11:14;2.83;;;2.20;;
5491;SDS011;2768;53.540;10.224;2022-09-09T17:17:11;3.60;;;2.10;;
5491;SDS011;2768;53.540;10.224;2022-09-09T17:23:22;2.13;;;1.87;;
5491;SDS011;2768;53.540;10.224;2022-09-09T17:29:15;2.53;;;2.20;;
5491;SDS011;2768;53.540;10.224;2022-09-09T17:35:10;3.37;;;2.00;;
5491;SDS011;2768;53.540;10.224;2022-09-09T17:41:03;2.77;;;1.97;;
5491;SDS011;2768;53.540;10.224;2022-09-09T17:46:58;2.03;;;1.90;;
5491;SDS011;2768;53.540;10.224;2022-09-09T17:52:52;2.53;;;2.17;;
5491;SDS011;2768;53.540;10.224;2022-09-09T17:58:48;3.70;;;2.50;;
5491;SDS011;2768;53.540;10.224;2022-09-09T18:04:42;4.10;;;2.80;;
5491;SDS011;2768;53.540;10.224;2022-09-09T18:10:36;3.47;;;3.17;;
5491;SDS011;2768;53.540;10.224;2022-09-09T18:16:31;3.63;;;3.33;;
5491;SDS011;2768;53.540;10.224;2022-09-09T18:22:26;4.70;;;3.27;;
5491;SDS011;2768;53.540;10.224;2022-09-09T18:28:23;5.10;;;3.30;;
5491;SDS011;2768;53.540;10.224;2022-09-09T18:34:18;8.13;;;3.30;;
5491;SDS011;2768;53.540;10.224;2022-09-09T18:40:13;4.30;;;3.33;;
5491;SDS011;2768;53.540;10.224;2022-09-09T18:46:07;3.53;;;3.30;;
5491;SDS011;2768;53.540;10.224;2022-09-09T18:52:00;2.47;;;2.37;;
5491;SDS011;2768;53.540;10.224;2022-09-09T18:57:54;3.83;;;2.37;;
5491;SDS011;2768;53.540;10.224;2022-09-09T19:03:50;4.90;;;3.27;;
5491;SDS011;2768;53.540;10.224;2022-09-09T19:09:44;3.80;;;2.67;;
5491;SDS011;2768;53.540;10.224;2022-09-09T19:15:39;4.10;;;2.57;;
5491;SDS011;2768;53.540;10.224;2022-09-09T19:21:34;4.53;;;3.00;;
5491;SDS011;2768;53.540;10.224;2022-09-09T19:27:28;4.70;;;2.80;;
5491;SDS011;2768;53.540;10.224;2022-09-09T19:33:22;3.37;;;2.40;;
5491;SDS011;2768;53.540;10.224;2022-09-09T19:39:16;2.70;;;2.37;;
5491;SDS011;2768;53.540;10.224;2022-09-09T19:45:10;2.23;;;2.03;;
5491;SDS011;2768;53.540;10.224;2022-09-09T19:51:03;2.83;;;2.63;;
5491;SDS011;2768;53.540;10.224;2022-09-09T19:57:01;3.83;;;2.90;;
5491;SDS011;2768;53.540;10.224;2022-09-09T20:02:54;4.50;;;2.60;;
5491;SDS011;2768;53.540;10.224;2022-09-09T20:09:10;2.90;;;2.50;;
5491;SDS011;2768;53.540;10.224;2022-09-09T20:15:07;3.93;;;2.67;;
5491;SDS011;2768;53.540;10.224;2022-09-09T20:21:02;2.50;;;2.30;;
5491;SDS011;2768;53.540;10.224;2022-09-09T20:26:56;4.10;;;2.90;;
5491;SDS011;2768;53.540;10.224;2022-09-09T20:32:51;4.43;;;3.17;;
5491;SDS011;2768;53.540;10.224;2022-09-09T20:38:45;3.30;;;2.17;;
5491;SDS011;2768;53.540;10.224;2022-09-09T20:44:39;3.10;;;2.10;;
5491;SDS011;2768;53.540;10.224;2022-09-09T20:50:34;3.70;;;2.03;;
5491;SDS011;2768;53.540;10.224;2022-09-09T20:56:29;2.07;;;1.97;;
5491;SDS011;2768;53.540;10.224;2022-09-09T21:02:24;2.77;;;2.60;;
5491;SDS011;2768;53.540;10.224;2022-09-09T21:08:18;3.00;;;2.70;;
5491;SDS011;2768;53.540;10.224;2022-09-09T21:14:12;4.03;;;3.00;;
5491;SDS011;2768;53.540;10.224;2022-09-09T21:20:05;3.93;;;3.50;;
5491;SDS011;2768;53.540;10.224;2022-09-09T21:26:01;5.83;;;3.50;;
5491;SDS011;2768;53.540;10.224;2022-09-09T21:31:55;4.57;;;3.50;;
5491;SDS011;2768;53.540;10.224;2022-09-09T21:37:48;4.60;;;3.80;;
5491;SDS011;2768;53.540;10.224;2022-09-09T21:43:43;3.97;;;3.50;;
5491;SDS011;2768;53.540;10.224;2022-09-09T21:49:38;5.97;;;3.73;;
5491;SDS011;2768;53.540;10.224;2022-09-09T21:55:32;3.83;;;3.27;;
5491;SDS011;2768;53.540;10.224;2022-09-09T22:01:28;5.33;;;3.30;;
5491;SDS011;2768;53.540;10.224;2022-09-09T22:07:23;4.77;;;3.60;;
5491;SDS011;2768;53.540;10.224;2022-09-09T22:13:16;3.80;;;2.97;;
5491;SDS011;2768;53.540;10.224;2022-09-09T22:19:11;3.73;;;3.07;;
5491;SDS011;2768;53.540;10.224;2022-09-09T22:25:06;6.67;;;5.97;;
5491;SDS011;2768;53.540;10.224;2022-09-09T22:30:59;6.13;;;2.87;;
5491;SDS011;2768;53.540;10.224;2022-09-09T22:36:54;4.30;;;2.53;;
5491;SDS011;2768;53.540;10.224;2022-09-09T22:42:47;3.00;;;2.40;;
5491;SDS011;2768;53.540;10.224;2022-09-09T22:48:43;4.43;;;2.37;;
5491;SDS011;2768;53.540;10.224;2022-09-09T22:54:39;6.40;;;2.67;;
5491;SDS011;2768;53.540;10.224;2022-09-09T23:00:33;3.03;;;2.63;;
5491;SDS011;2768;53.540;10.224;2022-09-09T23:06:26;3.33;;;2.40;;
5491;SDS011;2768;53.540;10.224;2022-09-09T23:12:22;4.37;;;2.40;;
5491;SDS011;2768;53.540;10.224;2022-09-09T23:18:16;3.17;;;2.67;;
5491;SDS011;2768;53.540;10.224;2022-09-09T23:24:10;4.40;;;2.10;;
5491;SDS011;2768;53.540;10.224;2022-09-09T23:30:06;3.63;;;2.37;;
5491;SDS011;2768;53.540;10.224;2022-09-09T23:36:00;2.40;;;2.20;;
5491;SDS011;2768;53.540;10.224;2022-09-09T23:41:59;5.83;;;2.13;;
5491;SDS011;2768;53.540;10.224;2022-09-09T23:47:57;1.90;;;1.80;;
5491;SDS011;2768;53.540;10.224;2022-09-09T23:53:52;3.13;;;2.80;;
5491;SDS011;2768;53.540;10.224;2022-09-09T23:59:47;3.97;;;2.50;;
